CheckWX is a tool to help pilots better visualize weather data.  It is not intended as a substitute for an official pre-flight weather briefing.

15:13:28 UTC

KMOD METAR
Modesto City-Co-Harry Sham Field Airport
Modesto, California, USA
Current

20 mins ago

KMOD 261453Z COR 09006KT 10SM SCT009 BKN030 BKN060 12/10 A2980 RMK AO2 SLP092 60006 T01220100 53020
Observed
May-26 @ 14:53 UTC
Wind
  • 090° at 6 KTS
Visibility
10 SM
Flight Rules
MVFR
Cloud Levels
  • Scattered at 900' AGL
  • Broken at 3,000' AGL
  • Broken at 6,000' AGL
Temperature
12°C / 54°F
Dewpoint
10°C / 50°F
Humidity
88%
Altimeter
29.8" Hg
Pressure
1009.12 hPa
Previous

42 mins ago

KMOD 261431Z 07003KT 10SM BKN007 BKN035 OVC050 12/11 A2980 RMK AO2 T01220106
Observed
May-26 @ 14:31 UTC
Wind
  • 070° at 3 KTS
Visibility
10 SM
Flight Rules
IFR
Cloud Levels
  • Broken at 700' AGL
  • Broken at 3,500' AGL
  • Overcast at 5,000' AGL
Temperature
12°C / 54°F
Dewpoint
11°C / 52°F
Humidity
94%
Altimeter
29.8" Hg
Pressure
1009.12 hPa
Previous

56 mins ago

KMOD 261417Z VRB05KT 10SM SCT006 BKN050 OVC100 12/11 A2979 RMK AO2 T01220106
Observed
May-26 @ 14:17 UTC
Wind
  • Variable at 5 KTS
Visibility
10 SM
Flight Rules
VFR
Cloud Levels
  • Scattered at 600' AGL
  • Broken at 5,000' AGL
  • Overcast at 10,000' AGL
Temperature
12°C / 54°F
Dewpoint
11°C / 52°F
Humidity
94%
Altimeter
29.79" Hg
Pressure
1008.82 hPa